createdAt,value
2023-03-01T00:00:09.080Z,3.40
2023-03-01T00:02:41.130Z,3.40
2023-03-01T00:05:13.535Z,3.40
2023-03-01T00:07:45.485Z,3.40
2023-03-01T00:10:17.752Z,3.40
2023-03-01T00:12:49.685Z,3.30
2023-03-01T00:15:21.691Z,3.30
2023-03-01T00:17:53.620Z,3.20
2023-03-01T00:20:25.576Z,3.20
2023-03-01T00:22:57.514Z,3.20
2023-03-01T00:25:29.451Z,3.30
2023-03-01T00:28:01.411Z,3.30
2023-03-01T00:30:34.427Z,3.20
2023-03-01T00:33:06.642Z,3.20
2023-03-01T00:35:38.970Z,3.20
2023-03-01T00:38:11.409Z,3.20
2023-03-01T00:40:43.356Z,3.20
2023-03-01T00:43:15.332Z,3.10
2023-03-01T00:45:47.267Z,3.10
2023-03-01T00:48:19.228Z,3.10
2023-03-01T00:50:51.126Z,3.10
2023-03-01T00:53:23.085Z,3.10
2023-03-01T00:55:54.984Z,3.00
2023-03-01T00:58:27.436Z,3.00
2023-03-01T01:00:59.613Z,3.00
2023-03-01T01:03:31.594Z,3.00
2023-03-01T01:06:10.304Z,2.90
2023-03-01T01:08:42.282Z,2.90
2023-03-01T01:11:15.360Z,2.90
2023-03-01T01:13:48.355Z,2.80
2023-03-01T01:16:22.862Z,2.90
2023-03-01T01:18:55.007Z,2.80
2023-03-01T01:21:28.008Z,2.80
2023-03-01T01:24:00.361Z,2.80
2023-03-01T01:26:35.405Z,2.80
2023-03-01T01:29:07.849Z,2.70
2023-03-01T01:31:42.098Z,2.70
2023-03-01T01:34:19.119Z,2.70
2023-03-01T01:36:55.000Z,2.60
2023-03-01T01:39:27.016Z,2.60
2023-03-01T01:41:58.983Z,2.60
2023-03-01T01:44:31.643Z,2.60
2023-03-01T01:47:13.879Z,2.60
2023-03-01T01:49:55.456Z,2.60
2023-03-01T01:52:36.887Z,2.50
2023-03-01T01:55:22.643Z,2.50
2023-03-01T01:57:59.628Z,2.40
2023-03-01T02:00:32.578Z,2.40
2023-03-01T02:03:30.030Z,2.40
2023-03-01T02:06:20.680Z,2.40
2023-03-01T02:08:54.237Z,2.40
2023-03-01T02:11:28.322Z,2.40
2023-03-01T02:14:00.905Z,2.30
2023-03-01T02:16:34.046Z,2.30
2023-03-01T02:19:07.817Z,2.30
2023-03-01T02:22:32.333Z,2.20
2023-03-01T02:25:19.197Z,2.20
2023-03-01T02:28:10.056Z,2.20
2023-03-01T02:31:03.550Z,2.20
2023-03-01T02:33:39.018Z,2.20
2023-03-01T02:36:18.160Z,2.10
2023-03-01T02:38:54.683Z,2.10
2023-03-01T02:41:31.853Z,2.10
2023-03-01T02:44:05.685Z,2.00
2023-03-01T02:46:49.883Z,2.10
2023-03-01T02:49:29.026Z,2.00
2023-03-01T02:52:49.021Z,2.00
2023-03-01T02:55:21.000Z,2.00
2023-03-01T02:57:53.383Z,2.00
2023-03-01T03:00:35.299Z,2.00
2023-03-01T03:03:08.536Z,2.00
2023-03-01T03:05:40.632Z,2.00
2023-03-01T03:08:13.012Z,1.90
2023-03-01T03:10:44.968Z,1.90
2023-03-01T03:13:17.869Z,1.90
2023-03-01T03:15:49.855Z,1.90
2023-03-01T03:18:22.502Z,1.80
2023-03-01T03:20:55.590Z,1.80
2023-03-01T03:23:27.558Z,1.80
2023-03-01T03:25:59.496Z,1.80
2023-03-01T03:28:33.107Z,1.80
2023-03-01T03:31:08.823Z,1.80
2023-03-01T03:33:40.838Z,1.80
2023-03-01T03:36:18.818Z,1.70
2023-03-01T03:38:51.305Z,1.70
2023-03-01T03:41:23.289Z,1.70
2023-03-01T03:43:55.270Z,1.70
2023-03-01T03:46:27.216Z,1.70
2023-03-01T03:48:59.214Z,1.70
2023-03-01T03:51:31.104Z,1.70
2023-03-01T03:54:03.222Z,1.70
2023-03-01T03:56:35.997Z,1.60
2023-03-01T03:59:07.910Z,1.60
2023-03-01T04:01:39.898Z,1.70
2023-03-01T04:04:11.848Z,1.60
2023-03-01T04:06:43.755Z,1.60
2023-03-01T04:09:15.777Z,1.60
2023-03-01T04:11:47.715Z,1.60
2023-03-01T04:14:19.651Z,1.60
2023-03-01T04:16:51.689Z,1.60
2023-03-01T04:19:23.680Z,1.60
2023-03-01T04:21:55.643Z,1.60
2023-03-01T04:24:27.577Z,1.60
2023-03-01T04:26:59.505Z,1.60
2023-03-01T04:29:31.465Z,1.50
2023-03-01T04:32:04.424Z,1.60
2023-03-01T04:34:36.499Z,1.50
2023-03-01T04:37:10.023Z,1.50
2023-03-01T04:39:46.509Z,1.60
2023-03-01T04:42:19.362Z,1.60
2023-03-01T04:44:54.219Z,1.60
2023-03-01T04:47:26.148Z,1.50
2023-03-01T04:49:58.084Z,1.50
2023-03-01T04:52:29.990Z,1.50
2023-03-01T04:55:02.607Z,1.50
2023-03-01T04:57:35.179Z,1.50
2023-03-01T05:00:21.471Z,1.50
2023-03-01T05:02:58.427Z,1.50
2023-03-01T05:05:40.037Z,1.40
2023-03-01T05:08:19.090Z,1.40
2023-03-01T05:10:53.509Z,1.40
2023-03-01T05:13:25.429Z,1.40
2023-03-01T05:16:01.525Z,1.40
2023-03-01T05:18:34.982Z,1.40
2023-03-01T05:21:14.308Z,1.40
2023-03-01T05:23:47.878Z,1.40
2023-03-01T05:26:28.260Z,1.40
2023-03-01T05:29:01.130Z,1.40
2023-03-01T05:31:33.296Z,1.30
2023-03-01T05:34:05.749Z,1.40
2023-03-01T05:36:37.727Z,1.30
2023-03-01T05:39:09.749Z,1.30
2023-03-01T05:41:41.720Z,1.30
2023-03-01T05:44:13.701Z,1.30
2023-03-01T05:46:45.941Z,1.30
2023-03-01T05:49:18.474Z,1.30
2023-03-01T05:51:53.954Z,1.30
2023-03-01T05:54:25.945Z,1.30
2023-03-01T05:56:57.891Z,1.20
2023-03-01T05:59:29.814Z,1.20
2023-03-01T06:02:01.759Z,1.20
2023-03-01T06:04:33.793Z,1.20
2023-03-01T06:07:05.824Z,1.20
2023-03-01T06:09:37.744Z,1.20
2023-03-01T06:12:09.721Z,1.20
2023-03-01T06:14:41.632Z,1.20
2023-03-01T06:17:13.670Z,1.10
2023-03-01T06:19:45.588Z,1.10
2023-03-01T06:22:17.621Z,1.10
2023-03-01T06:24:49.617Z,1.10
2023-03-01T06:27:21.638Z,1.10
2023-03-01T06:29:53.606Z,1.10
2023-03-01T06:32:25.689Z,1.10
2023-03-01T06:34:59.481Z,1.10
2023-03-01T06:37:31.624Z,1.10
2023-03-01T06:40:09.151Z,1.10
2023-03-01T06:42:44.728Z,1.10
2023-03-01T06:45:18.707Z,1.10
2023-03-01T06:47:51.448Z,1.10
2023-03-01T06:50:23.449Z,1.10
2023-03-01T06:52:58.819Z,1.20
2023-03-01T06:55:31.295Z,1.20
2023-03-01T06:58:04.498Z,1.20
2023-03-01T07:00:36.417Z,1.20
2023-03-01T07:03:09.663Z,1.20
2023-03-01T07:05:41.886Z,1.30
2023-03-01T07:08:13.809Z,1.30
2023-03-01T07:10:46.107Z,1.40
2023-03-01T07:13:18.098Z,1.50
2023-03-01T07:15:50.041Z,1.60
2023-03-01T07:18:22.172Z,1.70
2023-03-01T07:20:54.254Z,1.80
2023-03-01T07:23:26.209Z,1.90
2023-03-01T07:25:58.251Z,2.00
2023-03-01T07:28:31.383Z,2.10
2023-03-01T07:31:04.489Z,2.10
2023-03-01T07:33:36.496Z,2.20
2023-03-01T07:36:10.261Z,2.30
2023-03-01T07:38:42.175Z,2.40
2023-03-01T07:41:14.382Z,2.40
2023-03-01T07:43:46.286Z,2.50
2023-03-01T07:46:20.196Z,2.60
2023-03-01T07:48:52.197Z,2.70
2023-03-01T07:51:24.358Z,2.80
2023-03-01T07:53:56.274Z,3.00
2023-03-01T07:56:28.358Z,3.20
2023-03-01T07:59:01.055Z,3.40
2023-03-01T08:01:33.061Z,3.60
2023-03-01T08:04:08.096Z,3.80
2023-03-01T08:06:40.060Z,4.00
2023-03-01T08:09:12.090Z,4.20
2023-03-01T08:11:44.191Z,4.40
2023-03-01T08:14:16.218Z,4.50
2023-03-01T08:16:51.308Z,4.70
2023-03-01T08:19:23.795Z,4.80
2023-03-01T08:21:59.135Z,4.90
2023-03-01T08:24:31.247Z,5.00
2023-03-01T08:27:03.941Z,5.20
2023-03-01T08:29:36.183Z,5.20
2023-03-01T08:32:08.228Z,5.30
2023-03-01T08:34:42.265Z,5.40
2023-03-01T08:37:14.576Z,5.60
2023-03-01T08:39:47.586Z,5.70
2023-03-01T08:42:19.647Z,5.80
2023-03-01T08:44:51.580Z,6.00
2023-03-01T08:47:23.692Z,6.10
2023-03-01T08:49:55.676Z,6.20
2023-03-01T08:52:27.836Z,6.30
2023-03-01T08:55:00.269Z,6.30
2023-03-01T08:57:32.306Z,6.40
2023-03-01T09:00:09.241Z,6.40
2023-03-01T09:02:41.275Z,6.60
2023-03-01T09:05:13.364Z,6.70
2023-03-01T09:07:45.284Z,6.80
2023-03-01T09:10:17.384Z,6.90
2023-03-01T09:12:49.293Z,7.00
2023-03-01T09:15:21.314Z,7.00
2023-03-01T09:17:53.417Z,7.10
2023-03-01T09:20:25.487Z,7.00
2023-03-01T09:22:57.626Z,7.10
2023-03-01T09:25:29.560Z,7.20
2023-03-01T09:28:01.922Z,7.20
2023-03-01T09:30:34.204Z,7.20
2023-03-01T09:33:06.798Z,7.30
2023-03-01T09:35:38.852Z,7.30
2023-03-01T09:38:10.792Z,7.30
2023-03-01T09:40:47.815Z,7.40
2023-03-01T09:43:27.326Z,7.60
2023-03-01T09:46:09.095Z,7.70
2023-03-01T09:48:49.710Z,8.00
2023-03-01T09:51:33.536Z,8.20
2023-03-01T09:54:09.417Z,8.30
2023-03-01T09:56:54.835Z,8.40
2023-03-01T10:00:13.860Z,8.50
2023-03-01T10:03:13.957Z,8.60
2023-03-01T10:06:03.479Z,8.70
2023-03-01T10:09:06.533Z,8.90
2023-03-01T10:11:46.118Z,9.00
2023-03-01T10:14:39.173Z,9.20
2023-03-01T10:17:26.916Z,9.30
2023-03-01T10:20:39.397Z,9.30
2023-03-01T10:23:11.889Z,9.40
2023-03-01T10:26:25.245Z,9.30
2023-03-01T10:29:10.703Z,9.30
2023-03-01T10:31:51.230Z,9.30
2023-03-01T10:34:36.135Z,9.20
2023-03-01T10:37:25.409Z,9.40
2023-03-01T10:40:00.136Z,9.50
2023-03-01T10:42:35.267Z,9.70
2023-03-01T10:45:37.871Z,9.80
2023-03-01T10:48:17.609Z,9.90
2023-03-01T10:51:08.441Z,10.00
2023-03-01T10:53:51.268Z,10.20
2023-03-01T10:56:23.389Z,10.20
2023-03-01T10:59:06.784Z,10.20
2023-03-01T11:01:38.812Z,10.20
2023-03-01T11:04:14.674Z,10.30
2023-03-01T11:07:01.608Z,10.40
2023-03-01T11:09:41.283Z,10.50
2023-03-01T11:12:17.272Z,10.60
2023-03-01T11:14:57.957Z,10.70
2023-03-01T11:17:54.635Z,10.90
2023-03-01T11:20:38.530Z,11.10
2023-03-01T11:23:14.827Z,11.20
2023-03-01T11:25:57.092Z,11.20
2023-03-01T11:28:30.958Z,11.30
2023-03-01T11:31:15.935Z,11.30
2023-03-01T11:33:52.940Z,11.40
2023-03-01T11:36:45.064Z,11.50
2023-03-01T11:39:42.767Z,11.50
2023-03-01T11:42:26.052Z,11.60
2023-03-01T11:45:07.109Z,11.70
2023-03-01T11:47:55.854Z,11.60
2023-03-01T11:50:48.150Z,11.60
2023-03-01T11:53:37.832Z,11.70
2023-03-01T11:56:12.752Z,11.60
2023-03-01T11:59:07.739Z,11.70
2023-03-01T12:01:48.874Z,11.70
2023-03-01T12:05:11.031Z,11.80
2023-03-01T12:08:11.267Z,11.80
2023-03-01T12:11:11.043Z,11.90
2023-03-01T12:14:16.070Z,12.10
2023-03-01T12:17:26.692Z,12.30
2023-03-01T12:20:32.016Z,12.50
2023-03-01T12:23:40.516Z,12.50
2023-03-01T12:26:21.106Z,12.30
2023-03-01T12:29:48.416Z,12.20
2023-03-01T12:32:39.347Z,12.00
2023-03-01T12:35:49.567Z,12.10
2023-03-01T12:38:41.967Z,12.10
2023-03-01T12:41:30.702Z,12.20
2023-03-01T12:44:24.629Z,12.30
2023-03-01T12:47:19.583Z,12.30
2023-03-01T12:50:04.186Z,12.30
2023-03-01T12:52:53.014Z,12.30
2023-03-01T12:55:38.318Z,12.30
2023-03-01T12:58:48.849Z,12.30
2023-03-01T13:01:53.333Z,12.40
2023-03-01T13:05:06.492Z,12.50
2023-03-01T13:07:54.175Z,12.60
2023-03-01T13:10:51.107Z,12.70
2023-03-01T13:13:26.851Z,12.80
2023-03-01T13:16:24.098Z,13.00
2023-03-01T13:19:37.224Z,13.20
2023-03-01T13:22:35.534Z,13.40
2023-03-01T13:25:19.810Z,13.40
2023-03-01T13:27:51.760Z,13.40
2023-03-01T13:30:35.704Z,13.50
2023-03-01T13:33:28.598Z,13.60
2023-03-01T13:36:01.941Z,13.80
2023-03-01T13:38:48.022Z,14.00
2023-03-01T13:41:39.932Z,14.10
2023-03-01T13:44:23.954Z,14.10
2023-03-01T13:47:08.227Z,14.20
2023-03-01T13:50:00.601Z,14.30
2023-03-01T13:52:44.951Z,14.40
2023-03-01T13:55:28.111Z,14.60
2023-03-01T13:58:06.148Z,14.90
2023-03-01T14:00:40.949Z,15.20
2023-03-01T14:03:20.718Z,15.40
2023-03-01T14:06:16.695Z,15.50
2023-03-01T14:09:01.187Z,15.40
2023-03-01T14:11:53.356Z,15.10
2023-03-01T14:14:46.999Z,15.00
2023-03-01T14:17:40.962Z,15.00
2023-03-01T14:20:24.973Z,15.30
2023-03-01T14:23:16.750Z,15.50
2023-03-01T14:25:59.244Z,15.70
2023-03-01T14:28:38.398Z,15.90
2023-03-01T14:31:52.490Z,16.00
2023-03-01T14:34:26.339Z,16.20
2023-03-01T14:37:11.659Z,16.50
2023-03-01T14:39:43.589Z,16.60
2023-03-01T14:42:16.943Z,16.70
2023-03-01T14:44:56.212Z,16.70
2023-03-01T14:47:32.094Z,16.80
2023-03-01T14:50:25.268Z,16.90
2023-03-01T14:53:06.604Z,16.90
2023-03-01T14:55:43.495Z,16.80
2023-03-01T14:58:21.514Z,16.80
2023-03-01T15:00:57.367Z,16.80
2023-03-01T15:03:44.797Z,16.90
2023-03-01T15:06:23.827Z,16.90
2023-03-01T15:08:58.025Z,16.90
2023-03-01T15:11:33.453Z,17.00
2023-03-01T15:14:45.702Z,17.20
2023-03-01T15:17:56.263Z,17.30
2023-03-01T15:20:33.421Z,17.30
2023-03-01T15:23:06.398Z,17.40
2023-03-01T15:25:39.696Z,17.50
2023-03-01T15:28:24.033Z,17.50
2023-03-01T15:31:05.831Z,17.40
2023-03-01T15:33:39.474Z,17.50
2023-03-01T15:36:33.183Z,17.70
2023-03-01T15:39:07.237Z,17.90
2023-03-01T15:41:49.425Z,18.20
2023-03-01T15:44:43.362Z,18.30
2023-03-01T15:47:30.789Z,18.40
2023-03-01T15:50:03.936Z,18.50
2023-03-01T15:52:43.449Z,18.50
2023-03-01T15:55:35.722Z,18.50
2023-03-01T15:58:14.744Z,18.40
2023-03-01T16:01:00.185Z,18.30
2023-03-01T16:03:33.039Z,18.20
2023-03-01T16:06:05.415Z,18.10
2023-03-01T16:08:38.788Z,18.00
2023-03-01T16:11:19.890Z,17.90
2023-03-01T16:13:51.931Z,17.90
2023-03-01T16:16:24.036Z,17.90
2023-03-01T16:18:56.353Z,18.00
2023-03-01T16:21:28.438Z,18.20
2023-03-01T16:24:00.698Z,18.30
2023-03-01T16:26:33.266Z,18.40
2023-03-01T16:29:08.820Z,18.30
2023-03-01T16:31:40.861Z,18.20
2023-03-01T16:34:13.199Z,17.90
2023-03-01T16:36:45.337Z,17.30
2023-03-01T16:39:17.705Z,16.80
2023-03-01T16:41:49.676Z,16.30
2023-03-01T16:44:21.896Z,15.90
2023-03-01T16:46:53.872Z,15.70
2023-03-01T16:49:25.882Z,15.40
2023-03-01T16:51:57.940Z,15.10
2023-03-01T16:54:29.918Z,14.60
2023-03-01T16:57:02.026Z,14.20
2023-03-01T16:59:33.985Z,13.70
2023-03-01T17:02:13.551Z,13.10
2023-03-01T17:04:45.571Z,12.70
2023-03-01T17:07:17.570Z,12.20
2023-03-01T17:09:49.787Z,11.80
2023-03-01T17:12:21.713Z,11.50
2023-03-01T17:14:53.693Z,11.20
2023-03-01T17:17:25.868Z,10.90
2023-03-01T17:19:58.795Z,10.70
2023-03-01T17:22:30.836Z,10.50
2023-03-01T17:25:03.346Z,10.40
2023-03-01T17:27:35.690Z,10.20
2023-03-01T17:30:11.112Z,10.10
2023-03-01T17:32:43.361Z,10.00
2023-03-01T17:35:15.652Z,9.90
2023-03-01T17:37:47.634Z,9.80
2023-03-01T17:40:19.720Z,9.70
2023-03-01T17:42:51.670Z,9.70
2023-03-01T17:45:23.669Z,9.60
2023-03-01T17:47:55.568Z,9.50
2023-03-01T17:50:27.703Z,9.50
2023-03-01T17:53:00.223Z,9.40
2023-03-01T17:55:32.151Z,9.40
2023-03-01T17:58:06.385Z,9.40
2023-03-01T18:00:38.928Z,9.30
2023-03-01T18:03:10.938Z,9.30
2023-03-01T18:05:43.043Z,9.20
2023-03-01T18:08:15.054Z,9.20
2023-03-01T18:10:47.041Z,9.10
2023-03-01T18:13:18.975Z,9.00
2023-03-01T18:15:50.957Z,9.00
2023-03-01T18:18:22.913Z,8.90
2023-03-01T18:21:00.155Z,8.80
2023-03-01T18:23:34.668Z,8.80
2023-03-01T18:26:13.374Z,8.70
2023-03-01T18:28:48.484Z,8.70
2023-03-01T18:31:22.725Z,8.70
2023-03-01T18:33:55.454Z,8.60
2023-03-01T18:36:35.849Z,8.60
2023-03-01T18:39:09.022Z,8.50
2023-03-01T18:41:41.185Z,8.40
2023-03-01T18:44:13.141Z,8.30
2023-03-01T18:46:46.593Z,8.30
2023-03-01T18:49:19.532Z,8.20
2023-03-01T18:51:51.716Z,8.10
2023-03-01T18:54:23.694Z,8.10
2023-03-01T18:56:55.834Z,8.00
2023-03-01T18:59:29.737Z,7.90
2023-03-01T19:02:01.849Z,7.90
2023-03-01T19:04:33.878Z,7.80
2023-03-01T19:07:06.507Z,7.80
2023-03-01T19:09:40.780Z,7.80
2023-03-01T19:12:12.836Z,7.70
2023-03-01T19:14:44.983Z,7.70
2023-03-01T19:17:16.974Z,7.60
2023-03-01T19:19:50.217Z,7.60
2023-03-01T19:22:22.143Z,7.50
2023-03-01T19:24:54.137Z,7.50
2023-03-01T19:27:26.252Z,7.40
2023-03-01T19:29:58.169Z,7.40
2023-03-01T19:32:30.228Z,7.30
2023-03-01T19:35:02.280Z,7.30
2023-03-01T19:37:35.338Z,7.20
2023-03-01T19:40:08.936Z,7.10
2023-03-01T19:42:40.919Z,7.10
2023-03-01T19:45:13.622Z,7.00
2023-03-01T19:47:50.961Z,7.00
2023-03-01T19:50:22.923Z,6.90
2023-03-01T19:52:55.093Z,6.90
2023-03-01T19:55:27.078Z,6.80
2023-03-01T19:57:59.067Z,6.70
2023-03-01T20:00:30.997Z,6.70
2023-03-01T20:03:03.462Z,6.60
2023-03-01T20:05:38.288Z,6.60
2023-03-01T20:08:10.282Z,6.60
2023-03-01T20:10:42.211Z,6.50
2023-03-01T20:13:14.734Z,6.50
2023-03-01T20:15:47.435Z,6.50
2023-03-01T20:18:19.544Z,6.50
2023-03-01T20:20:52.384Z,6.40
2023-03-01T20:23:24.359Z,6.40
2023-03-01T20:26:23.492Z,6.40
2023-03-01T20:28:57.329Z,6.40
2023-03-01T20:31:29.918Z,6.30
2023-03-01T20:34:02.199Z,6.30
2023-03-01T20:36:35.121Z,6.20
2023-03-01T20:39:09.647Z,6.20
2023-03-01T20:41:41.867Z,6.20
2023-03-01T20:44:13.981Z,6.20
2023-03-01T20:46:46.245Z,6.10
2023-03-01T20:49:18.492Z,6.10
2023-03-01T20:51:50.543Z,6.10
2023-03-01T20:54:22.516Z,6.00
2023-03-01T20:56:55.108Z,6.00
2023-03-01T20:59:27.034Z,6.00
2023-03-01T21:01:59.001Z,6.00
2023-03-01T21:04:31.002Z,6.00
2023-03-01T21:07:02.991Z,5.90
2023-03-01T21:09:34.951Z,5.90
2023-03-01T21:12:06.971Z,5.90
2023-03-01T21:14:42.505Z,5.80
2023-03-01T21:17:16.923Z,5.80
2023-03-01T21:19:50.612Z,5.80
2023-03-01T21:22:22.600Z,5.80
2023-03-01T21:24:55.072Z,5.80
2023-03-01T21:27:27.321Z,5.80
2023-03-01T21:29:59.305Z,5.70
2023-03-01T21:32:31.504Z,5.70
2023-03-01T21:35:03.670Z,5.70
2023-03-01T21:37:35.682Z,5.70
2023-03-01T21:40:08.917Z,5.70
2023-03-01T21:42:42.890Z,5.70
2023-03-01T21:45:14.983Z,5.70
2023-03-01T21:47:46.921Z,5.60
2023-03-01T21:50:19.414Z,5.60
2023-03-01T21:52:51.407Z,5.60
2023-03-01T21:55:23.434Z,5.60
2023-03-01T21:57:55.475Z,5.60
2023-03-01T22:00:28.463Z,5.60
2023-03-01T22:03:00.498Z,5.50
2023-03-01T22:05:32.537Z,5.50
2023-03-01T22:08:05.629Z,5.50
2023-03-01T22:10:42.558Z,5.50
2023-03-01T22:13:14.723Z,5.40
2023-03-01T22:15:47.150Z,5.40
2023-03-01T22:18:19.109Z,5.40
2023-03-01T22:20:51.179Z,5.40
2023-03-01T22:23:23.276Z,5.30
2023-03-01T22:25:55.567Z,5.30
2023-03-01T22:28:29.476Z,5.30
2023-03-01T22:31:05.922Z,5.30
2023-03-01T22:33:37.888Z,5.20
2023-03-01T22:36:09.969Z,5.20
2023-03-01T22:38:41.991Z,5.20
2023-03-01T22:41:14.797Z,5.20
2023-03-01T22:43:46.747Z,5.20
2023-03-01T22:46:20.520Z,5.20
2023-03-01T22:48:53.129Z,5.10
2023-03-01T22:51:32.139Z,5.10
2023-03-01T22:54:04.985Z,5.10
2023-03-01T22:56:38.575Z,5.10
2023-03-01T22:59:14.983Z,5.10
2023-03-01T23:01:48.031Z,5.00
2023-03-01T23:04:22.706Z,5.00
2023-03-01T23:06:54.776Z,5.00
2023-03-01T23:09:33.200Z,4.90
2023-03-01T23:12:07.492Z,4.90
2023-03-01T23:14:40.658Z,4.80
2023-03-01T23:17:13.035Z,4.80
2023-03-01T23:19:45.103Z,4.80
2023-03-01T23:22:20.891Z,4.70
2023-03-01T23:24:52.927Z,4.70
2023-03-01T23:27:24.884Z,4.70
2023-03-01T23:29:56.854Z,4.70
2023-03-01T23:32:28.862Z,4.60
2023-03-01T23:35:00.829Z,4.60
2023-03-01T23:37:32.805Z,4.60
2023-03-01T23:40:06.700Z,4.60
2023-03-01T23:42:38.727Z,4.50
2023-03-01T23:45:11.455Z,4.50
2023-03-01T23:47:44.398Z,4.50
2023-03-01T23:50:16.389Z,4.50
2023-03-01T23:52:48.347Z,4.40
2023-03-01T23:55:21.110Z,4.40
2023-03-01T23:57:53.082Z,4.40
